sensor_id;sensor_type;location;lat;lon;timestamp;pressure;altitude;pressure_sealevel;temperature;humidity
59493;BME280;45497;43.996;22.876;2023-01-25T00:01:14;102963.41;;;3.79;54.40
59493;BME280;45497;43.996;22.876;2023-01-25T00:03:39;102971.97;;;3.82;54.58
59493;BME280;45497;43.996;22.876;2023-01-25T00:06:05;102963.28;;;3.82;54.49
59493;BME280;45497;43.996;22.876;2023-01-25T00:08:30;102968.72;;;3.77;54.42
59493;BME280;45497;43.996;22.876;2023-01-25T00:10:56;102964.72;;;3.69;54.39
59493;BME280;45497;43.996;22.876;2023-01-25T00:13:21;102971.13;;;3.82;54.38
59493;BME280;45497;43.996;22.876;2023-01-25T00:15:47;102965.13;;;3.80;54.74
59493;BME280;45497;43.996;22.876;2023-01-25T00:18:12;102969.06;;;3.70;54.53
59493;BME280;45497;43.996;22.876;2023-01-25T00:20:38;102960.91;;;3.76;54.62
59493;BME280;45497;43.996;22.876;2023-01-25T00:23:03;102962.56;;;3.78;54.69
59493;BME280;45497;43.996;22.876;2023-01-25T00:25:28;102970.69;;;3.72;54.67
59493;BME280;45497;43.996;22.876;2023-01-25T00:27:54;102966.09;;;3.77;54.88
59493;BME280;45497;43.996;22.876;2023-01-25T00:30:19;102964.13;;;3.82;54.31
59493;BME280;45497;43.996;22.876;2023-01-25T00:32:56;102969.94;;;3.89;54.85
59493;BME280;45497;43.996;22.876;2023-01-25T00:35:29;102967.66;;;3.81;54.75
59493;BME280;45497;43.996;22.876;2023-01-25T00:38:00;102963.81;;;3.70;55.10
59493;BME280;45497;43.996;22.876;2023-01-25T00:40:26;102958.16;;;3.79;55.01
59493;BME280;45497;43.996;22.876;2023-01-25T00:42:51;102951.41;;;3.73;55.05
59493;BME280;45497;43.996;22.876;2023-01-25T00:45:17;102953.75;;;3.79;55.16
59493;BME280;45497;43.996;22.876;2023-01-25T00:47:43;102958.72;;;3.67;55.12
59493;BME280;45497;43.996;22.876;2023-01-25T00:50:09;102959.41;;;3.70;55.37
59493;BME280;45497;43.996;22.876;2023-01-25T00:52:34;102950.00;;;3.85;55.06
59493;BME280;45497;43.996;22.876;2023-01-25T00:55:00;102958.03;;;3.82;54.97
59493;BME280;45497;43.996;22.876;2023-01-25T00:57:26;102952.41;;;3.90;55.17
59493;BME280;45497;43.996;22.876;2023-01-25T00:59:52;102953.50;;;3.86;55.20
59493;BME280;45497;43.996;22.876;2023-01-25T01:02:17;102958.03;;;3.82;55.10
59493;BME280;45497;43.996;22.876;2023-01-25T01:04:43;102956.31;;;4.00;55.19
59493;BME280;45497;43.996;22.876;2023-01-25T01:07:11;102963.75;;;4.09;54.99
59493;BME280;45497;43.996;22.876;2023-01-25T01:09:36;102966.44;;;4.08;55.09
59493;BME280;45497;43.996;22.876;2023-01-25T01:12:02;102953.31;;;3.89;55.39
59493;BME280;45497;43.996;22.876;2023-01-25T01:14:28;102953.31;;;3.89;55.14
59493;BME280;45497;43.996;22.876;2023-01-25T01:16:53;102954.59;;;3.99;54.97
59493;BME280;45497;43.996;22.876;2023-01-25T01:19:18;102943.34;;;3.97;55.04
59493;BME280;45497;43.996;22.876;2023-01-25T01:21:44;102959.22;;;3.94;55.13
59493;BME280;45497;43.996;22.876;2023-01-25T01:24:10;102949.50;;;3.96;55.36
59493;BME280;45497;43.996;22.876;2023-01-25T01:26:35;102952.63;;;4.04;55.01
59493;BME280;45497;43.996;22.876;2023-01-25T01:29:01;102956.66;;;4.11;55.03
59493;BME280;45497;43.996;22.876;2023-01-25T01:31:27;102951.63;;;4.07;55.09
59493;BME280;45497;43.996;22.876;2023-01-25T01:33:54;102947.94;;;4.11;54.92
59493;BME280;45497;43.996;22.876;2023-01-25T01:36:21;102947.72;;;4.15;55.14
59493;BME280;45497;43.996;22.876;2023-01-25T01:38:47;102952.81;;;4.18;55.40
59493;BME280;45497;43.996;22.876;2023-01-25T01:41:14;102956.78;;;4.27;55.11
59493;BME280;45497;43.996;22.876;2023-01-25T01:43:40;102945.94;;;4.16;54.93
59493;BME280;45497;43.996;22.876;2023-01-25T01:49:14;102943.81;;;4.05;55.67
59493;BME280;45497;43.996;22.876;2023-01-25T01:51:48;102935.66;;;4.11;55.54
59493;BME280;45497;43.996;22.876;2023-01-25T01:57:09;102931.81;;;4.18;55.52
59493;BME280;45497;43.996;22.876;2023-01-25T01:59:43;102930.34;;;4.13;55.56
59493;BME280;45497;43.996;22.876;2023-01-25T02:02:10;102935.09;;;4.05;55.70
59493;BME280;45497;43.996;22.876;2023-01-25T02:04:36;102935.31;;;4.00;56.07
59493;BME280;45497;43.996;22.876;2023-01-25T02:07:10;102917.72;;;3.83;56.43
59493;BME280;45497;43.996;22.876;2023-01-25T02:09:39;102919.16;;;3.90;56.23
59493;BME280;45497;43.996;22.876;2023-01-25T02:12:05;102917.94;;;3.97;56.22
59493;BME280;45497;43.996;22.876;2023-01-25T02:14:32;102913.69;;;3.95;56.18
59493;BME280;45497;43.996;22.876;2023-01-25T02:16:59;102918.44;;;4.06;55.66
59493;BME280;45497;43.996;22.876;2023-01-25T02:22:27;102918.63;;;4.01;56.28
59493;BME280;45497;43.996;22.876;2023-01-25T02:25:08;102901.41;;;3.95;56.49
59493;BME280;45497;43.996;22.876;2023-01-25T02:27:37;102914.13;;;3.86;56.02
59493;BME280;45497;43.996;22.876;2023-01-25T02:30:05;102917.66;;;3.85;56.19
59493;BME280;45497;43.996;22.876;2023-01-25T02:32:32;102913.75;;;3.74;56.56
59493;BME280;45497;43.996;22.876;2023-01-25T02:34:57;102911.06;;;3.76;56.53
59493;BME280;45497;43.996;22.876;2023-01-25T02:37:23;102904.34;;;3.70;56.48
59493;BME280;45497;43.996;22.876;2023-01-25T02:39:48;102909.59;;;3.70;56.24
59493;BME280;45497;43.996;22.876;2023-01-25T02:42:15;102905.81;;;3.76;56.37
59493;BME280;45497;43.996;22.876;2023-01-25T02:44:41;102905.88;;;3.93;56.24
59493;BME280;45497;43.996;22.876;2023-01-25T02:47:07;102907.81;;;3.90;56.73
59493;BME280;45497;43.996;22.876;2023-01-25T02:49:36;102911.63;;;3.82;56.48
59493;BME280;45497;43.996;22.876;2023-01-25T02:52:04;102910.28;;;3.74;56.65
59493;BME280;45497;43.996;22.876;2023-01-25T02:54:29;102909.84;;;3.83;56.84
59493;BME280;45497;43.996;22.876;2023-01-25T02:56:55;102911.28;;;3.90;56.52
59493;BME280;45497;43.996;22.876;2023-01-25T02:59:21;102902.34;;;3.94;56.42
59493;BME280;45497;43.996;22.876;2023-01-25T03:01:47;102907.41;;;3.80;56.76
59493;BME280;45497;43.996;22.876;2023-01-25T03:04:13;102906.06;;;3.71;56.87
59493;BME280;45497;43.996;22.876;2023-01-25T03:06:39;102896.28;;;3.75;56.92
59493;BME280;45497;43.996;22.876;2023-01-25T03:09:07;102893.91;;;3.69;56.52
59493;BME280;45497;43.996;22.876;2023-01-25T03:11:33;102895.88;;;3.63;56.97
59493;BME280;45497;43.996;22.876;2023-01-25T03:13:59;102901.31;;;3.60;56.58
59493;BME280;45497;43.996;22.876;2023-01-25T03:16:25;102906.75;;;3.56;56.83
59493;BME280;45497;43.996;22.876;2023-01-25T03:18:53;102894.91;;;3.47;56.89
59493;BME280;45497;43.996;22.876;2023-01-25T03:21:20;102898.28;;;3.49;56.87
59493;BME280;45497;43.996;22.876;2023-01-25T03:23:47;102890.03;;;3.58;57.03
59493;BME280;45497;43.996;22.876;2023-01-25T03:26:19;102894.00;;;3.48;56.72
59493;BME280;45497;43.996;22.876;2023-01-25T03:28:45;102895.47;;;3.54;56.58
59493;BME280;45497;43.996;22.876;2023-01-25T03:31:14;102892.91;;;3.52;56.96
59493;BME280;45497;43.996;22.876;2023-01-25T03:33:40;102898.75;;;3.59;56.45
59493;BME280;45497;43.996;22.876;2023-01-25T03:36:06;102902.84;;;3.64;56.64
59493;BME280;45497;43.996;22.876;2023-01-25T03:38:32;102893.44;;;3.60;56.58
59493;BME280;45497;43.996;22.876;2023-01-25T03:40:58;102891.47;;;3.66;56.63
59493;BME280;45497;43.996;22.876;2023-01-25T03:43:24;102889.09;;;3.78;56.20
59493;BME280;45497;43.996;22.876;2023-01-25T03:45:58;102899.66;;;3.77;56.13
59493;BME280;45497;43.996;22.876;2023-01-25T03:48:25;102896.34;;;3.73;56.15
59493;BME280;45497;43.996;22.876;2023-01-25T03:50:52;102900.75;;;3.73;56.15
59493;BME280;45497;43.996;22.876;2023-01-25T03:53:22;102900.88;;;3.70;56.48
59493;BME280;45497;43.996;22.876;2023-01-25T03:56:00;102901.84;;;3.48;57.04
59493;BME280;45497;43.996;22.876;2023-01-25T03:58:27;102904.75;;;3.42;57.05
59493;BME280;45497;43.996;22.876;2023-01-25T04:00:55;102895.25;;;3.39;57.50
59493;BME280;45497;43.996;22.876;2023-01-25T04:03:21;102894.75;;;3.50;57.16
59493;BME280;45497;43.996;22.876;2023-01-25T04:05:47;102901.50;;;3.56;56.72
59493;BME280;45497;43.996;22.876;2023-01-25T04:08:13;102896.69;;;3.47;57.02
59493;BME280;45497;43.996;22.876;2023-01-25T04:10:38;102892.44;;;3.44;56.99
59493;BME280;45497;43.996;22.876;2023-01-25T04:13:04;102901.78;;;3.50;56.97
59493;BME280;45497;43.996;22.876;2023-01-25T04:15:29;102898.94;;;3.54;56.95
59493;BME280;45497;43.996;22.876;2023-01-25T04:17:55;102890.53;;;3.48;56.85
59493;BME280;45497;43.996;22.876;2023-01-25T04:20:21;102899.53;;;3.61;56.64
59493;BME280;45497;43.996;22.876;2023-01-25T04:22:46;102893.84;;;3.51;57.24
59493;BME280;45497;43.996;22.876;2023-01-25T04:25:12;102884.47;;;3.45;57.41
59493;BME280;45497;43.996;22.876;2023-01-25T04:27:37;102891.50;;;3.45;57.27
59493;BME280;45497;43.996;22.876;2023-01-25T04:30:03;102893.16;;;3.48;57.72
59493;BME280;45497;43.996;22.876;2023-01-25T04:32:29;102899.53;;;3.61;56.96
59493;BME280;45497;43.996;22.876;2023-01-25T04:34:54;102892.28;;;3.47;57.31
59493;BME280;45497;43.996;22.876;2023-01-25T04:37:20;102894.41;;;3.58;57.36
59493;BME280;45497;43.996;22.876;2023-01-25T04:39:45;102893.16;;;3.48;57.27
59493;BME280;45497;43.996;22.876;2023-01-25T04:42:11;102896.69;;;3.47;57.56
59493;BME280;45497;43.996;22.876;2023-01-25T04:44:36;102892.69;;;3.38;57.57
59493;BME280;45497;43.996;22.876;2023-01-25T04:47:02;102896.31;;;3.35;57.83
59493;BME280;45497;43.996;22.876;2023-01-25T04:49:28;102894.47;;;3.37;58.00
59493;BME280;45497;43.996;22.876;2023-01-25T04:51:53;102888.47;;;3.15;58.25
59493;BME280;45497;43.996;22.876;2023-01-25T04:54:18;102889.59;;;3.09;58.77
59493;BME280;45497;43.996;22.876;2023-01-25T04:56:44;102897.84;;;3.20;58.34
59493;BME280;45497;43.996;22.876;2023-01-25T04:59:09;102900.91;;;3.30;58.42
59493;BME280;45497;43.996;22.876;2023-01-25T05:01:35;102896.03;;;3.22;58.49
59493;BME280;45497;43.996;22.876;2023-01-25T05:04:00;102894.47;;;3.37;58.26
59493;BME280;45497;43.996;22.876;2023-01-25T05:06:26;102904.91;;;3.39;58.02
59493;BME280;45497;43.996;22.876;2023-01-25T05:08:51;102897.94;;;3.19;58.76
59493;BME280;45497;43.996;22.876;2023-01-25T05:11:17;102900.13;;;3.28;58.71
59493;BME280;45497;43.996;22.876;2023-01-25T05:13:42;102908.25;;;3.22;58.80
59493;BME280;45497;43.996;22.876;2023-01-25T05:16:08;102889.72;;;3.06;59.38
59493;BME280;45497;43.996;22.876;2023-01-25T05:18:33;102895.16;;;3.22;59.08
59493;BME280;45497;43.996;22.876;2023-01-25T05:20:58;102896.03;;;3.22;58.90
59493;BME280;45497;43.996;22.876;2023-01-25T05:23:24;102895.53;;;3.33;58.70
59493;BME280;45497;43.996;22.876;2023-01-25T05:25:49;102891.09;;;3.15;59.11
59493;BME280;45497;43.996;22.876;2023-01-25T05:28:33;102897.34;;;3.31;58.72
59493;BME280;45497;43.996;22.876;2023-01-25T05:31:02;102893.63;;;3.37;58.67
59493;BME280;45497;43.996;22.876;2023-01-25T05:33:28;102899.06;;;3.32;58.76
59493;BME280;45497;43.996;22.876;2023-01-25T05:35:53;102904.19;;;3.35;58.88
59493;BME280;45497;43.996;22.876;2023-01-25T05:38:20;102909.56;;;3.32;58.87
59493;BME280;45497;43.996;22.876;2023-01-25T05:40:46;102901.03;;;3.27;58.74
59493;BME280;45497;43.996;22.876;2023-01-25T05:43:11;102912.00;;;3.16;59.04
59493;BME280;45497;43.996;22.876;2023-01-25T05:45:37;102901.09;;;3.06;59.32
59493;BME280;45497;43.996;22.876;2023-01-25T05:48:02;102909.97;;;3.23;59.18
59493;BME280;45497;43.996;22.876;2023-01-25T05:50:28;102904.44;;;3.29;59.12
59493;BME280;45497;43.996;22.876;2023-01-25T05:52:53;102905.88;;;3.36;58.81
59493;BME280;45497;43.996;22.876;2023-01-25T05:55:19;102897.66;;;3.25;59.13
59493;BME280;45497;43.996;22.876;2023-01-25T05:57:44;102907.22;;;3.26;59.03
59493;BME280;45497;43.996;22.876;2023-01-25T06:00:10;102901.88;;;3.28;59.25
59493;BME280;45497;43.996;22.876;2023-01-25T06:02:36;102911.75;;;3.41;59.17
59493;BME280;45497;43.996;22.876;2023-01-25T06:05:05;102908.00;;;3.28;58.82
59493;BME280;45497;43.996;22.876;2023-01-25T06:07:35;102909.19;;;3.21;59.12
59493;BME280;45497;43.996;22.876;2023-01-25T06:10:02;102909.97;;;3.23;59.27
59493;BME280;45497;43.996;22.876;2023-01-25T06:12:27;102904.00;;;3.19;59.34
59493;BME280;45497;43.996;22.876;2023-01-25T06:14:53;102907.94;;;3.30;58.99
59493;BME280;45497;43.996;22.876;2023-01-25T06:17:18;102910.56;;;3.09;59.26
59493;BME280;45497;43.996;22.876;2023-01-25T06:19:44;102921.22;;;3.25;59.32
59493;BME280;45497;43.996;22.876;2023-01-25T06:22:09;102919.19;;;3.32;58.92
59493;BME280;45497;43.996;22.876;2023-01-25T06:24:35;102925.22;;;3.34;58.76
59493;BME280;45497;43.996;22.876;2023-01-25T06:27:00;102910.94;;;3.20;59.43
59493;BME280;45497;43.996;22.876;2023-01-25T06:29:26;102909.31;;;3.18;59.44
59493;BME280;45497;43.996;22.876;2023-01-25T06:31:51;102917.47;;;3.31;59.25
59493;BME280;45497;43.996;22.876;2023-01-25T06:34:17;102912.47;;;3.26;59.45
59493;BME280;45497;43.996;22.876;2023-01-25T06:36:42;102907.66;;;3.36;58.88
59493;BME280;45497;43.996;22.876;2023-01-25T06:39:08;102909.13;;;3.22;59.14
59493;BME280;45497;43.996;22.876;2023-01-25T06:41:33;102911.66;;;3.24;59.01
59493;BME280;45497;43.996;22.876;2023-01-25T06:43:59;102907.78;;;3.33;59.03
59493;BME280;45497;43.996;22.876;2023-01-25T06:46:24;102909.28;;;3.38;58.88
59493;BME280;45497;43.996;22.876;2023-01-25T06:48:50;102899.44;;;3.43;58.52
59493;BME280;45497;43.996;22.876;2023-01-25T06:51:16;102905.69;;;3.41;58.67
59493;BME280;45497;43.996;22.876;2023-01-25T06:53:43;102900.84;;;3.32;58.55
59493;BME280;45497;43.996;22.876;2023-01-25T06:56:18;102910.34;;;3.34;58.94
59493;BME280;45497;43.996;22.876;2023-01-25T06:58:44;102906.94;;;3.32;58.69
59493;BME280;45497;43.996;22.876;2023-01-25T07:03:40;102912.38;;;3.28;59.15
59493;BME280;45497;43.996;22.876;2023-01-25T07:06:09;102909.50;;;3.34;58.69
59493;BME280;45497;43.996;22.876;2023-01-25T07:08:35;102914.94;;;3.29;58.79
59493;BME280;45497;43.996;22.876;2023-01-25T07:11:03;102913.72;;;3.36;58.91
59493;BME280;45497;43.996;22.876;2023-01-25T07:13:30;102911.53;;;3.27;58.92
59493;BME280;45497;43.996;22.876;2023-01-25T07:16:02;102908.13;;;3.25;58.87
59493;BME280;45497;43.996;22.876;2023-01-25T07:18:29;102912.69;;;3.40;58.54
59493;BME280;45497;43.996;22.876;2023-01-25T07:20:55;102905.59;;;3.42;58.28
59493;BME280;45497;43.996;22.876;2023-01-25T07:23:26;102911.28;;;3.52;58.08
59493;BME280;45497;43.996;22.876;2023-01-25T07:25:52;102904.34;;;3.51;57.98
59493;BME280;45497;43.996;22.876;2023-01-25T07:28:17;102909.59;;;3.51;57.62
59493;BME280;45497;43.996;22.876;2023-01-25T07:30:43;102905.25;;;3.50;57.95
59493;BME280;45497;43.996;22.876;2023-01-25T07:33:09;102903.22;;;3.57;57.87
59493;BME280;45497;43.996;22.876;2023-01-25T07:35:35;102901.56;;;3.35;58.14
59493;BME280;45497;43.996;22.876;2023-01-25T07:38:01;102899.13;;;3.31;58.42
59493;BME280;45497;43.996;22.876;2023-01-25T07:40:26;102916.59;;;3.32;58.01
59493;BME280;45497;43.996;22.876;2023-01-25T07:42:52;102905.31;;;3.49;58.09
59493;BME280;45497;43.996;22.876;2023-01-25T07:45:18;102909.16;;;3.60;57.69
59493;BME280;45497;43.996;22.876;2023-01-25T07:47:44;102905.97;;;3.73;57.53
59493;BME280;45497;43.996;22.876;2023-01-25T07:50:10;102910.50;;;3.88;57.28
59493;BME280;45497;43.996;22.876;2023-01-25T07:52:35;102914.06;;;3.87;57.22
59493;BME280;45497;43.996;22.876;2023-01-25T07:55:01;102907.38;;;3.99;57.17
59493;BME280;45497;43.996;22.876;2023-01-25T07:57:26;102909.44;;;3.92;56.67
59493;BME280;45497;43.996;22.876;2023-01-25T07:59:55;102910.91;;;3.98;56.81
59493;BME280;45497;43.996;22.876;2023-01-25T08:02:20;102903.66;;;4.03;56.65
59493;BME280;45497;43.996;22.876;2023-01-25T08:04:46;102914.88;;;4.07;56.25
59493;BME280;45497;43.996;22.876;2023-01-25T08:07:12;102901.81;;;4.05;56.32
59493;BME280;45497;43.996;22.876;2023-01-25T08:09:39;102890.19;;;4.11;56.24
59493;BME280;45497;43.996;22.876;2023-01-25T08:12:05;102901.59;;;4.10;55.85
59493;BME280;45497;43.996;22.876;2023-01-25T08:14:31;102893.66;;;4.11;56.09
59493;BME280;45497;43.996;22.876;2023-01-25T08:16:56;102901.41;;;4.14;55.70
59493;BME280;45497;43.996;22.876;2023-01-25T08:19:22;102904.22;;;4.10;55.19
59493;BME280;45497;43.996;22.876;2023-01-25T08:21:49;102902.19;;;3.97;55.01
59493;BME280;45497;43.996;22.876;2023-01-25T08:24:14;102905.06;;;4.10;55.15
59493;BME280;45497;43.996;22.876;2023-01-25T08:26:40;102898.59;;;4.17;54.64
59493;BME280;45497;43.996;22.876;2023-01-25T08:29:09;102898.69;;;4.16;54.99
59493;BME280;45497;43.996;22.876;2023-01-25T08:31:35;102903.16;;;4.14;54.85
59493;BME280;45497;43.996;22.876;2023-01-25T08:34:01;102895.72;;;4.05;55.03
59493;BME280;45497;43.996;22.876;2023-01-25T08:36:27;102902.69;;;4.06;54.92
59493;BME280;45497;43.996;22.876;2023-01-25T08:38:55;102900.91;;;4.06;55.32
59493;BME280;45497;43.996;22.876;2023-01-25T08:41:20;102897.69;;;4.18;54.74
59493;BME280;45497;43.996;22.876;2023-01-25T08:43:46;102888.28;;;4.14;54.92
59493;BME280;45497;43.996;22.876;2023-01-25T08:46:13;102900.19;;;4.21;55.11
59493;BME280;45497;43.996;22.876;2023-01-25T08:48:39;102895.13;;;4.17;54.58
59493;BME280;45497;43.996;22.876;2023-01-25T08:51:10;102898.59;;;4.17;54.73
59493;BME280;45497;43.996;22.876;2023-01-25T08:53:36;102896.94;;;4.34;54.88
59493;BME280;45497;43.996;22.876;2023-01-25T08:56:10;102891.16;;;4.27;54.92
59493;BME280;45497;43.996;22.876;2023-01-25T08:58:38;102896.84;;;4.35;54.09
59493;BME280;45497;43.996;22.876;2023-01-25T09:01:05;102895.47;;;4.81;58.25
59493;BME280;45497;43.996;22.876;2023-01-25T09:03:34;102900.03;;;5.93;61.59
59493;BME280;45497;43.996;22.876;2023-01-25T09:06:00;102894.47;;;6.45;59.55
59493;BME280;45497;43.996;22.876;2023-01-25T09:08:26;102891.19;;;6.26;60.25
59493;BME280;45497;43.996;22.876;2023-01-25T09:10:51;102887.44;;;6.30;56.75
59493;BME280;45497;43.996;22.876;2023-01-25T09:13:17;102886.50;;;5.83;54.76
59493;BME280;45497;43.996;22.876;2023-01-25T09:15:42;102886.25;;;5.56;54.07
59493;BME280;45497;43.996;22.876;2023-01-25T09:18:09;102883.59;;;5.24;53.88
59493;BME280;45497;43.996;22.876;2023-01-25T09:20:37;102884.16;;;5.29;53.63
59493;BME280;45497;43.996;22.876;2023-01-25T09:23:03;102878.25;;;5.26;53.52
59493;BME280;45497;43.996;22.876;2023-01-25T09:25:28;102868.00;;;5.04;53.39
59493;BME280;45497;43.996;22.876;2023-01-25T09:27:53;102870.41;;;5.08;53.44
59493;BME280;45497;43.996;22.876;2023-01-25T09:30:19;102863.00;;;4.99;53.36
59493;BME280;45497;43.996;22.876;2023-01-25T09:32:47;102861.69;;;5.08;53.46
59493;BME280;45497;43.996;22.876;2023-01-25T09:35:13;102858.78;;;5.12;52.68
59493;BME280;45497;43.996;22.876;2023-01-25T09:37:39;102853.19;;;5.03;52.54
59493;BME280;45497;43.996;22.876;2023-01-25T09:40:05;102854.13;;;4.84;52.69
59493;BME280;45497;43.996;22.876;2023-01-25T09:42:47;102850.84;;;4.96;53.33
59493;BME280;45497;43.996;22.876;2023-01-25T09:45:34;102846.13;;;5.03;53.34
59493;BME280;45497;43.996;22.876;2023-01-25T09:55:57;102825.53;;;4.95;53.26
59493;BME280;45497;43.996;22.876;2023-01-25T09:58:31;102836.47;;;4.70;53.35
59493;BME280;45497;43.996;22.876;2023-01-25T10:03:58;102827.28;;;4.62;53.82
59493;BME280;45497;43.996;22.876;2023-01-25T10:06:38;102826.28;;;4.47;53.98
59493;BME280;45497;43.996;22.876;2023-01-25T10:11:36;102814.69;;;4.68;53.77
59493;BME280;45497;43.996;22.876;2023-01-25T10:14:11;102813.66;;;4.71;54.10
59493;BME280;45497;43.996;22.876;2023-01-25T10:21:47;102806.13;;;4.81;54.13
59493;BME280;45497;43.996;22.876;2023-01-25T10:24:29;102795.44;;;5.01;53.80
59493;BME280;45497;43.996;22.876;2023-01-25T10:27:00;102787.69;;;4.98;53.71
59493;BME280;45497;43.996;22.876;2023-01-25T10:29:30;102775.13;;;4.87;53.57
59493;BME280;45497;43.996;22.876;2023-01-25T10:32:16;102791.88;;;4.69;54.04
59493;BME280;45497;43.996;22.876;2023-01-25T10:34:47;102782.75;;;4.76;53.62
59493;BME280;45497;43.996;22.876;2023-01-25T10:37:19;102773.72;;;4.97;54.12
59493;BME280;45497;43.996;22.876;2023-01-25T10:42:43;102771.59;;;5.20;53.32
59493;BME280;45497;43.996;22.876;2023-01-25T10:45:12;102762.97;;;5.34;53.53
59493;BME280;45497;43.996;22.876;2023-01-25T10:47:40;102761.44;;;5.30;53.39
59493;BME280;45497;43.996;22.876;2023-01-25T10:50:07;102754.16;;;5.35;53.52
59493;BME280;45497;43.996;22.876;2023-01-25T10:52:33;102758.81;;;5.14;53.54
59493;BME280;45497;43.996;22.876;2023-01-25T10:55:17;102760.13;;;4.89;53.46
59493;BME280;45497;43.996;22.876;2023-01-25T10:57:45;102764.41;;;4.92;54.02
59493;BME280;45497;43.996;22.876;2023-01-25T11:00:38;102746.50;;;4.98;53.68
59493;BME280;45497;43.996;22.876;2023-01-25T11:03:05;102756.09;;;5.00;53.91
59493;BME280;45497;43.996;22.876;2023-01-25T11:05:55;102744.38;;;5.05;53.41
59493;BME280;45497;43.996;22.876;2023-01-25T11:08:39;102747.09;;;5.20;53.27
59493;BME280;45497;43.996;22.876;2023-01-25T11:11:33;102739.78;;;4.93;53.90
59493;BME280;45497;43.996;22.876;2023-01-25T11:13:59;102731.50;;;5.01;53.91
59493;BME280;45497;43.996;22.876;2023-01-25T11:16:33;102731.84;;;5.10;53.51
59493;BME280;45497;43.996;22.876;2023-01-25T11:19:01;102730.41;;;5.05;53.63
59493;BME280;45497;43.996;22.876;2023-01-25T11:21:32;102720.50;;;5.10;53.64
59493;BME280;45497;43.996;22.876;2023-01-25T11:26:23;102713.34;;;4.96;53.55
59493;BME280;45497;43.996;22.876;2023-01-25T11:28:49;102718.84;;;4.91;53.40
59493;BME280;45497;43.996;22.876;2023-01-25T11:31:18;102696.81;;;4.94;53.59
59493;BME280;45497;43.996;22.876;2023-01-25T11:33:44;102705.38;;;4.97;53.29
59493;BME280;45497;43.996;22.876;2023-01-25T11:36:16;102701.66;;;5.02;52.36
59493;BME280;45497;43.996;22.876;2023-01-25T11:41:58;102692.47;;;4.93;51.96
59493;BME280;45497;43.996;22.876;2023-01-25T11:47:58;102693.16;;;5.12;51.53
59493;BME280;45497;43.996;22.876;2023-01-25T11:53:28;102691.22;;;5.16;51.61
59493;BME280;45497;43.996;22.876;2023-01-25T12:04:56;102674.09;;;5.25;50.52
59493;BME280;45497;43.996;22.876;2023-01-25T12:10:54;102659.91;;;5.27;50.16
59493;BME280;45497;43.996;22.876;2023-01-25T12:16:14;102653.88;;;5.25;50.21
59493;BME280;45497;43.996;22.876;2023-01-25T12:21:37;102646.41;;;5.33;50.45
59493;BME280;45497;43.996;22.876;2023-01-25T12:29:57;102650.69;;;5.50;50.54
59493;BME280;45497;43.996;22.876;2023-01-25T12:32:35;102647.16;;;5.35;50.25
59493;BME280;45497;43.996;22.876;2023-01-25T12:37:31;102638.78;;;5.29;50.07
59493;BME280;45497;43.996;22.876;2023-01-25T12:40:28;102643.66;;;5.05;49.89
59493;BME280;45497;43.996;22.876;2023-01-25T12:42:57;102636.78;;;5.02;49.87
59493;BME280;45497;43.996;22.876;2023-01-25T12:45:24;102629.09;;;5.29;50.53
59493;BME280;45497;43.996;22.876;2023-01-25T12:47:58;102642.44;;;5.26;49.53
59493;BME280;45497;43.996;22.876;2023-01-25T12:50:33;102631.25;;;5.23;49.94
59493;BME280;45497;43.996;22.876;2023-01-25T12:53:22;102634.41;;;5.13;50.03
59493;BME280;45497;43.996;22.876;2023-01-25T12:55:49;102632.38;;;5.03;50.03
59493;BME280;45497;43.996;22.876;2023-01-25T12:58:42;102617.31;;;4.90;49.80
59493;BME280;45497;43.996;22.876;2023-01-25T13:01:23;102629.44;;;4.61;50.30
59493;BME280;45497;43.996;22.876;2023-01-25T13:07:33;102618.75;;;4.80;50.91
59493;BME280;45497;43.996;22.876;2023-01-25T13:10:08;102621.81;;;4.72;50.50
59493;BME280;45497;43.996;22.876;2023-01-25T13:12:55;102608.06;;;4.83;50.33
59493;BME280;45497;43.996;22.876;2023-01-25T13:15:40;102604.75;;;4.95;50.10
59493;BME280;45497;43.996;22.876;2023-01-25T13:21:00;102608.91;;;4.84;49.71
59493;BME280;45497;43.996;22.876;2023-01-25T13:23:41;102615.19;;;4.81;49.73
59493;BME280;45497;43.996;22.876;2023-01-25T13:28:56;102611.16;;;5.06;49.83
59493;BME280;45497;43.996;22.876;2023-01-25T13:36:54;102603.53;;;5.17;49.53
59493;BME280;45497;43.996;22.876;2023-01-25T13:44:36;102603.69;;;5.14;49.88
59493;BME280;45497;43.996;22.876;2023-01-25T13:47:06;102611.66;;;5.28;49.75
59493;BME280;45497;43.996;22.876;2023-01-25T13:49:48;102607.81;;;5.34;49.78
59493;BME280;45497;43.996;22.876;2023-01-25T13:52:21;102609.91;;;5.43;49.59
59493;BME280;45497;43.996;22.876;2023-01-25T13:54:48;102597.53;;;5.29;49.19
59493;BME280;45497;43.996;22.876;2023-01-25T13:57:19;102591.59;;;5.11;49.40
59493;BME280;45497;43.996;22.876;2023-01-25T13:59:46;102589.91;;;5.41;49.64
59493;BME280;45497;43.996;22.876;2023-01-25T14:02:17;102596.09;;;5.40;49.67
59493;BME280;45497;43.996;22.876;2023-01-25T14:04:46;102600.84;;;5.33;48.86
59493;BME280;45497;43.996;22.876;2023-01-25T14:07:16;102592.28;;;4.99;49.30
59493;BME280;45497;43.996;22.876;2023-01-25T14:09:42;102602.59;;;5.02;49.49
59493;BME280;45497;43.996;22.876;2023-01-25T14:12:09;102594.28;;;5.26;49.07
59493;BME280;45497;43.996;22.876;2023-01-25T14:14:36;102593.59;;;5.22;49.21
59493;BME280;45497;43.996;22.876;2023-01-25T14:19:40;102592.41;;;5.28;49.50
59493;BME280;45497;43.996;22.876;2023-01-25T14:25:09;102591.31;;;5.16;49.11
59493;BME280;45497;43.996;22.876;2023-01-25T14:27:43;102580.44;;;4.92;49.76
59493;BME280;45497;43.996;22.876;2023-01-25T14:32:48;102585.69;;;4.92;48.93
59493;BME280;45497;43.996;22.876;2023-01-25T14:37:56;102589.59;;;5.01;49.44